FAEL

Ben Schoeman Airport

Airport
ICAO code
FAEL
IATA Code
ELS
Summary
ICAO Region
AFI
ICAO Territory
Location

, Eastern Cape

Serving
East London
Elevation
435 ft
Coordinates
33° 2' 8" S , 27° 49' 33" E
Metar
FAEL 190500Z VRB01KT 9999 FEW004 OVC024 18/18 Q1020

Runways

Designator Length Width Surface Rops
6/24 1585 46 ASP Yes/Yes
11/29 1939 46 ASP Yes/Yes

Airport map

Aerial View

SKYbrary Partners:

Safety knowledge contributed by: